• Join FlightAware (Why Join?)
  • Login
  • US Flag 
04:32PM EST


 

Airport Tracker/Info


-or-


 

Live Flight TrackerFlight Track Log ✈ N762NC ✈ 11-Aug-2013 ✈ KSAV - KATL

Flight Track Log - Related Links

Times and Time Zones

All times are in EDT time to prevent confusion due to time zone crossing. See the N762NC flight status page for this flight to view local times or setup timezone preferences in your user account.

Time Position Orientation Groundspeed Altitude Reporting Facility
EDT Latitude Longitude Course Direction KTS MPH feet Rate Location/Type
06:51PM 32.2664 -81.2439 287° West 279 321 7,100  Level Jacksonville Center
06:52PM 32.3175 -81.3094 313° West 268 308 9,400 2,100 Climbing Jacksonville Center
06:53PM 32.3808 -81.3797 317° Northwest 284 327 11,400 1,980 Climbing Jacksonville Center
06:54PM 32.2581 -81.6963 288° West  Level FlightAware Approximate
06:54PM 32.4358 -81.4403 317° Northwest 296 341 13,400  Level Jacksonville Center
06:55PM 32.2809 -81.7800 288° West  Level FlightAware Approximate
06:55PM 32.5158 -81.5006 328° Northwest 308 354 15,500  Level Jacksonville Center
06:56PM 32.3035 -81.8639 287° West  Level FlightAware Approximate
06:56PM 32.5833 -81.5539 326° Northwest 314 361 17,000  Level Jacksonville Center
06:58PM 32.6844 -81.6992 310° West 314 361 19,800 1,320 Climbing Atlanta Center
06:59PM 32.6783 -81.8153 266° West 300 345 20,900 900 Climbing Atlanta Center
07:00PM 32.6678 -81.9367 264° West 338 389 21,700 540 Climbing Atlanta Center
07:01PM 32.6533 -82.0603 262° West 368 423 22,000 120 Climbing Atlanta Center
07:02PM 32.6428 -82.1861 264° West 381 438 22,000  Level Atlanta Center
07:03PM 32.6300 -82.3097 263° West 386 444 22,000  Level Atlanta Center
07:04PM 32.6189 -82.4308 264° West 381 438 22,000  Level Atlanta Center
07:05PM 32.6058 -82.5494 263° West 376 433 22,000  Level Atlanta Center
07:06PM 32.5883 -82.6583 259° West 357 411 22,000  Level Atlanta Center
07:07PM 32.5728 -82.7694 261° West 346 398 22,000  Level Atlanta Center
07:08PM 32.5989 -82.8725 287° West 333 383 22,000  Level Atlanta Center
07:09PM 32.6933 -82.9133 340° North 304 350 22,000  Level Atlanta Center
07:10PM 32.7914 -82.9319 351° North 309 356 22,000 -300 Level Atlanta Center
07:11PM 32.8897 -82.9553 349° North 334 384 21,400 -1,140 Descending Atlanta Center
07:12PM 32.9839 -82.9739 351° North 347 399 19,800 -1,740 Descending Atlanta Center
07:13PM 33.0739 -83.0025 345° North 342 394 18,000 -1,500 Descending Atlanta Center
07:14PM 33.1142 -83.0889 299° West 301 346 16,800 -1,140 Descending Atlanta Center
07:15PM 33.1233 -83.2006 276° West 296 341 15,800 -1,020 Descending Atlanta Center
07:16PM 33.1344 -83.3019 277° West 301 346 14,800 -1,020 Descending Atlanta Center
07:17PM 33.1497 -83.3986 281° West 313 360 13,800 -960 Descending Atlanta Center
07:18PM 33.1628 -83.4978 279° West 308 354 12,900 -780 Descending Atlanta Center
07:19PM 33.1756 -83.5919 279° West 308 354 12,300 -480 Descending Atlanta Center
07:20PM 33.1864 -83.6914 277° West 298 343 12,000 -120 Descending Atlanta Center
07:21PM 33.1992 -83.7831 279° West 292 336 12,100 -300 Climbing Atlanta Center
07:22PM 33.2411 -83.8650 301° West 287 330 11,400 -1,200 Descending Atlanta Center
07:23PM 33.2933 -83.9369 311° West 287 330 9,700 -1,500 Descending Atlanta Center
07:24PM 33.3414 -83.9942 315° West 287 330 8,400 -1,260 Descending Atlanta Center
07:25PM 33.4164 -84.0114 349° North 260 299 7,200 -1,080 Descending Atlanta Center
07:26PM 33.4769 -84.0464 334° Northwest 247 284 6,300 -1,200 Descending Atlanta Center
07:27PM 33.5333 -84.0786 335° Northwest 233 268 4,900 -1,320 Descending Atlanta Center
07:28PM 33.5814 -84.1311 318° Northwest 233 268 3,700 -900 Descending Atlanta Center
07:29PM 33.6167 -84.2167 296° West 223 257 3,000 -300 Descending Atlanta TRACON
07:30PM 33.6167 -84.2833 270° West 197 227 3,100 -360 Climbing Atlanta TRACON
07:31PM 33.6167 -84.3333 270° West 191 220 2,300 -840 Descending Atlanta TRACON
07:32PM 33.6167 -84.3833 270° West 141 162 1,500 -840 Descending Atlanta TRACON
07:34PM 33.6333 -84.4167 40° Northeast  Level FlightAware Approximate
07:41PM 33.6367 -84.4279 40° Northeast  Level Estimated
07:42PM 33.6367 -84.4279 40° Northeast  Level Estimated